createdAt,value
2023-04-29T00:00:22.142Z,13.76
2023-04-29T00:02:24.902Z,13.62
2023-04-29T00:04:29.245Z,13.70
2023-04-29T00:06:31.978Z,13.60
2023-04-29T00:08:34.590Z,13.55
2023-04-29T00:10:37.785Z,13.53
2023-04-29T00:12:41.219Z,13.57
2023-04-29T00:14:44.041Z,13.63
2023-04-29T00:16:46.883Z,13.64
2023-04-29T00:18:50.741Z,13.55
2023-04-29T00:20:54.652Z,13.55
2023-04-29T00:22:57.216Z,13.46
2023-04-29T00:24:59.788Z,13.53
2023-04-29T00:27:02.637Z,13.54
2023-04-29T00:29:05.226Z,13.41
2023-04-29T00:31:07.831Z,13.50
2023-04-29T00:33:10.708Z,13.45
2023-04-29T00:35:13.532Z,13.37
2023-04-29T00:37:17.479Z,13.41
2023-04-29T00:39:20.030Z,13.37
2023-04-29T00:41:22.650Z,13.33
2023-04-29T00:43:25.307Z,13.30
2023-04-29T00:45:27.991Z,13.28
2023-04-29T00:47:30.575Z,13.26
2023-04-29T00:49:33.214Z,13.30
2023-04-29T00:51:37.496Z,13.25
2023-04-29T00:53:41.890Z,13.38
2023-04-29T00:55:45.432Z,13.41
2023-04-29T00:57:50.057Z,13.42
2023-04-29T00:59:53.752Z,13.44
2023-04-29T01:01:56.807Z,13.46
2023-04-29T01:03:59.736Z,13.39
2023-04-29T01:06:14.111Z,13.34
2023-04-29T01:08:27.097Z,13.39
2023-04-29T01:10:36.744Z,13.38
2023-04-29T01:12:47.253Z,13.28
2023-04-29T01:14:58.806Z,13.24
2023-04-29T01:17:06.739Z,13.25
2023-04-29T01:19:20.811Z,13.22
2023-04-29T01:21:23.810Z,13.30
2023-04-29T01:23:29.060Z,13.22
2023-04-29T01:25:31.792Z,13.20
2023-04-29T01:27:38.116Z,13.18
2023-04-29T01:29:48.338Z,13.25
2023-04-29T01:31:59.459Z,13.32
2023-04-29T01:34:10.227Z,13.30
2023-04-29T01:36:23.983Z,13.28
2023-04-29T01:38:37.758Z,13.26
2023-04-29T01:40:48.665Z,13.18
2023-04-29T01:43:01.394Z,13.23
2023-04-29T01:45:08.038Z,13.22
2023-04-29T01:47:14.476Z,13.12
2023-04-29T01:49:17.024Z,13.12
2023-04-29T01:51:22.014Z,13.15
2023-04-29T01:53:27.363Z,13.10
2023-04-29T01:55:31.417Z,13.09
2023-04-29T01:57:34.338Z,13.08
2023-04-29T01:59:37.293Z,13.06
2023-04-29T02:01:39.904Z,13.09
2023-04-29T02:03:42.613Z,13.13
2023-04-29T02:05:45.347Z,13.10
2023-04-29T02:07:47.922Z,13.13
2023-04-29T02:09:50.903Z,13.22
2023-04-29T02:11:55.301Z,13.22
2023-04-29T02:13:57.850Z,13.21
2023-04-29T02:16:08.628Z,13.16
2023-04-29T02:18:11.254Z,13.16
2023-04-29T02:20:14.240Z,13.09
2023-04-29T02:22:17.004Z,13.06
2023-04-29T02:24:19.554Z,13.07
2023-04-29T02:26:22.242Z,13.06
2023-04-29T02:28:26.323Z,13.08
2023-04-29T02:30:28.906Z,13.06
2023-04-29T02:32:31.628Z,13.12
2023-04-29T02:34:34.682Z,13.21
2023-04-29T02:36:37.260Z,13.21
2023-04-29T02:38:39.863Z,13.13
2023-04-29T02:40:43.143Z,13.12
2023-04-29T02:42:45.695Z,13.05
2023-04-29T02:44:49.768Z,12.99
2023-04-29T02:46:52.339Z,12.95
2023-04-29T02:48:54.880Z,12.94
2023-04-29T02:50:57.459Z,12.98
2023-04-29T02:53:00.075Z,13.01
2023-04-29T02:55:03.114Z,12.93
2023-04-29T02:57:05.734Z,12.92
2023-04-29T02:59:08.337Z,12.96
2023-04-29T03:01:12.356Z,13.05
2023-04-29T03:03:15.091Z,12.95
2023-04-29T03:05:17.999Z,12.90
2023-04-29T03:07:20.843Z,12.87
2023-04-29T03:09:23.625Z,12.80
2023-04-29T03:11:26.320Z,12.82
2023-04-29T03:13:28.906Z,12.87
2023-04-29T03:15:31.474Z,12.80
2023-04-29T03:17:35.675Z,12.74
2023-04-29T03:19:38.252Z,12.77
2023-04-29T03:21:40.814Z,12.70
2023-04-29T03:23:43.422Z,12.68
2023-04-29T03:25:46.027Z,12.67
2023-04-29T03:27:48.588Z,12.66
2023-04-29T03:29:51.340Z,12.65
2023-04-29T03:31:54.115Z,12.63
2023-04-29T03:33:58.003Z,12.61
2023-04-29T03:36:00.709Z,12.57
2023-04-29T03:38:03.507Z,12.58
2023-04-29T03:40:07.247Z,12.56
2023-04-29T03:42:09.864Z,12.56
2023-04-29T03:44:12.418Z,12.56
2023-04-29T03:46:14.965Z,12.56
2023-04-29T03:48:17.726Z,12.56
2023-04-29T03:50:21.643Z,12.56
2023-04-29T03:52:24.312Z,12.63
2023-04-29T03:54:26.965Z,12.58
2023-04-29T03:56:29.595Z,12.61
2023-04-29T03:58:32.207Z,12.69
2023-04-29T04:00:34.964Z,12.55
2023-04-29T04:02:37.694Z,12.51
2023-04-29T04:04:41.488Z,12.48
2023-04-29T04:06:51.209Z,12.47
2023-04-29T04:08:53.862Z,12.43
2023-04-29T04:11:02.713Z,12.42
2023-04-29T04:13:05.278Z,12.45
2023-04-29T04:15:08.802Z,12.47
2023-04-29T04:17:11.744Z,12.42
2023-04-29T04:19:14.319Z,12.39
2023-04-29T04:21:16.900Z,12.37
2023-04-29T04:23:20.806Z,12.36
2023-04-29T04:25:23.356Z,12.34
2023-04-29T04:27:25.936Z,12.33
2023-04-29T04:29:28.548Z,12.33
2023-04-29T04:31:31.204Z,12.31
2023-04-29T04:33:34.569Z,12.31
2023-04-29T04:35:37.176Z,12.32
2023-04-29T04:37:39.766Z,12.32
2023-04-29T04:39:43.701Z,12.38
2023-04-29T04:41:46.268Z,12.35
2023-04-29T04:43:48.818Z,12.30
2023-04-29T04:45:51.659Z,12.25
2023-04-29T04:47:54.264Z,12.25
2023-04-29T04:49:56.838Z,12.24
2023-04-29T04:51:59.384Z,12.26
2023-04-29T04:54:01.929Z,12.26
2023-04-29T04:56:06.557Z,12.27
2023-04-29T04:58:09.153Z,12.29
2023-04-29T05:00:13.283Z,12.32
2023-04-29T05:02:15.896Z,12.35
2023-04-29T05:04:18.749Z,12.39
2023-04-29T05:06:21.462Z,12.39
2023-04-29T05:08:24.089Z,12.41
2023-04-29T05:10:27.174Z,12.44
2023-04-29T05:12:31.729Z,12.45
2023-04-29T05:14:34.315Z,12.49
2023-04-29T05:16:36.960Z,12.58
2023-04-29T05:18:39.601Z,12.56
2023-04-29T05:20:42.174Z,12.57
2023-04-29T05:22:44.767Z,12.59
2023-04-29T05:24:48.304Z,12.61
2023-04-29T05:26:52.011Z,12.63
2023-04-29T05:28:56.004Z,12.67
2023-04-29T05:30:58.691Z,12.68
2023-04-29T05:33:01.655Z,12.73
2023-04-29T05:35:06.745Z,12.75
2023-04-29T05:37:10.052Z,12.79
2023-04-29T05:39:12.587Z,12.81
2023-04-29T05:41:15.166Z,12.84
2023-04-29T05:43:17.739Z,12.91
2023-04-29T05:45:21.862Z,12.93
2023-04-29T05:47:24.567Z,12.96
2023-04-29T05:49:27.157Z,13.01
2023-04-29T05:51:29.736Z,13.05
2023-04-29T05:53:33.237Z,13.07
2023-04-29T05:55:35.839Z,13.06
2023-04-29T05:57:38.398Z,13.05
2023-04-29T05:59:40.972Z,13.07
2023-04-29T06:01:44.848Z,13.18
2023-04-29T06:03:47.563Z,13.18
2023-04-29T06:05:50.548Z,13.17
2023-04-29T06:07:53.626Z,13.28
2023-04-29T06:09:57.136Z,13.36
2023-04-29T06:11:59.692Z,13.32
2023-04-29T06:14:02.378Z,13.42
2023-04-29T06:16:05.243Z,13.35
2023-04-29T06:18:09.224Z,13.42
2023-04-29T06:20:12.650Z,13.43
2023-04-29T06:22:15.200Z,13.52
2023-04-29T06:24:17.846Z,13.53
2023-04-29T06:26:20.920Z,13.45
2023-04-29T06:28:23.516Z,13.43
2023-04-29T06:30:26.156Z,13.55
2023-04-29T06:32:28.749Z,13.58
2023-04-29T06:34:32.977Z,13.65
2023-04-29T06:36:35.525Z,13.58
2023-04-29T06:38:38.160Z,13.64
2023-04-29T06:40:40.766Z,13.76
2023-04-29T06:42:43.745Z,13.66
2023-04-29T06:44:46.448Z,13.62
2023-04-29T06:46:49.077Z,13.52
2023-04-29T06:48:51.677Z,13.55
2023-04-29T06:50:57.114Z,13.77
2023-04-29T06:52:59.723Z,13.80
2023-04-29T06:55:02.279Z,13.88
2023-04-29T06:57:04.936Z,13.86
2023-04-29T06:59:07.742Z,13.88
2023-04-29T07:01:11.008Z,13.73
2023-04-29T07:03:13.906Z,13.68
2023-04-29T07:05:16.493Z,13.76
2023-04-29T07:07:20.407Z,13.97
2023-04-29T07:09:23.610Z,14.16
2023-04-29T07:11:26.885Z,14.01
2023-04-29T07:13:29.440Z,13.95
2023-04-29T07:15:36.891Z,13.90
2023-04-29T07:17:39.498Z,14.03
2023-04-29T07:19:42.095Z,14.13
2023-04-29T07:21:44.684Z,14.33
2023-04-29T07:23:48.726Z,14.12
2023-04-29T07:25:52.264Z,14.03
2023-04-29T07:27:54.821Z,14.06
2023-04-29T07:29:57.802Z,14.10
2023-04-29T07:32:00.402Z,14.09
2023-04-29T07:34:03.007Z,14.03
2023-04-29T07:36:07.322Z,14.21
2023-04-29T07:38:10.230Z,14.09
2023-04-29T07:40:14.370Z,14.10
2023-04-29T07:42:16.929Z,14.33
2023-04-29T07:44:19.493Z,14.51
2023-04-29T07:46:22.123Z,14.46
2023-04-29T07:48:24.695Z,14.26
2023-04-29T07:50:27.935Z,14.31
2023-04-29T07:52:30.492Z,14.49
2023-04-29T07:54:33.123Z,14.72
2023-04-29T07:56:37.065Z,14.55
2023-04-29T07:58:39.620Z,14.53
2023-04-29T08:00:42.446Z,14.50
2023-04-29T08:02:45.466Z,14.70
2023-04-29T08:04:48.737Z,14.54
2023-04-29T08:06:51.700Z,14.66
2023-04-29T08:08:56.223Z,14.56
2023-04-29T08:10:58.850Z,14.60
2023-04-29T08:13:02.784Z,14.78
2023-04-29T08:15:07.807Z,14.69
2023-04-29T08:17:12.198Z,14.73
2023-04-29T08:19:14.756Z,14.87
2023-04-29T08:21:17.310Z,14.93
2023-04-29T08:23:19.916Z,14.76
2023-04-29T08:25:22.532Z,14.71
2023-04-29T08:27:25.080Z,14.66
2023-04-29T08:29:29.028Z,14.63
2023-04-29T08:31:31.929Z,14.58
2023-04-29T08:33:34.570Z,14.53
2023-04-29T08:35:38.511Z,14.53
2023-04-29T08:37:41.387Z,14.49
2023-04-29T08:39:46.753Z,14.58
2023-04-29T08:41:51.671Z,14.61
2023-04-29T08:43:54.268Z,14.69
2023-04-29T08:45:59.275Z,14.59
2023-04-29T08:48:04.424Z,14.62
2023-04-29T08:50:08.513Z,14.58
2023-04-29T08:52:11.604Z,14.53
2023-04-29T08:54:14.213Z,14.56
2023-04-29T08:56:21.821Z,14.57
2023-04-29T08:58:26.434Z,14.57
2023-04-29T09:00:31.623Z,14.58
2023-04-29T09:02:42.270Z,14.58
2023-04-29T09:04:50.839Z,14.60
2023-04-29T09:06:56.493Z,14.63
2023-04-29T09:09:00.331Z,14.65
2023-04-29T09:11:03.656Z,14.73
2023-04-29T09:13:06.723Z,15.20
2023-04-29T09:15:10.452Z,15.21
2023-04-29T09:17:13.011Z,15.37
2023-04-29T09:19:31.113Z,15.41
2023-04-29T09:21:36.001Z,15.35
2023-04-29T09:23:38.743Z,15.40
2023-04-29T09:25:41.298Z,15.34
2023-04-29T09:27:44.063Z,15.59
2023-04-29T09:30:02.020Z,15.45
2023-04-29T09:32:19.835Z,15.54
2023-04-29T09:34:33.569Z,15.46
2023-04-29T09:36:44.979Z,15.45
2023-04-29T09:38:55.851Z,15.36
2023-04-29T09:40:59.926Z,15.30
2023-04-29T09:43:05.068Z,15.27
2023-04-29T09:45:09.399Z,15.26
2023-04-29T09:47:13.366Z,15.31
2023-04-29T09:49:26.082Z,15.46
2023-04-29T09:51:32.323Z,15.33
2023-04-29T09:53:38.021Z,15.34
2023-04-29T09:56:01.554Z,15.31
2023-04-29T09:58:04.144Z,15.32
2023-04-29T10:00:08.714Z,15.39
2023-04-29T10:02:16.215Z,15.43
2023-04-29T10:04:20.696Z,15.47
2023-04-29T10:06:25.288Z,15.43
2023-04-29T10:08:30.907Z,15.43
2023-04-29T10:10:35.875Z,15.42
2023-04-29T10:12:40.842Z,15.42
2023-04-29T10:14:48.866Z,15.52
2023-04-29T10:17:00.140Z,15.48
2023-04-29T10:19:06.882Z,15.48
2023-04-29T10:21:10.507Z,15.50
2023-04-29T10:23:14.897Z,15.58
2023-04-29T10:25:20.580Z,15.55
2023-04-29T10:27:25.442Z,15.54
2023-04-29T10:29:31.240Z,15.59
2023-04-29T10:31:35.492Z,15.66
2023-04-29T10:33:39.627Z,15.60
2023-04-29T10:35:45.090Z,15.69
2023-04-29T10:37:49.491Z,15.59
2023-04-29T10:39:58.895Z,15.58
2023-04-29T10:42:06.953Z,15.57
2023-04-29T10:44:09.525Z,15.58
2023-04-29T10:46:19.471Z,15.60
2023-04-29T10:48:24.526Z,15.62
2023-04-29T10:50:29.288Z,15.64
2023-04-29T10:52:31.925Z,15.66
2023-04-29T10:54:34.498Z,15.68
2023-04-29T10:56:45.310Z,15.69
2023-04-29T10:58:49.211Z,15.71
2023-04-29T11:00:51.828Z,15.72
2023-04-29T11:02:54.967Z,15.72
2023-04-29T11:05:11.181Z,15.73
2023-04-29T11:07:28.480Z,15.71
2023-04-29T11:09:34.004Z,15.72
2023-04-29T11:12:02.986Z,15.70
2023-04-29T11:14:09.947Z,15.77
2023-04-29T11:16:13.831Z,15.78
2023-04-29T11:18:16.466Z,15.86
2023-04-29T11:20:19.183Z,15.99
2023-04-29T11:22:30.335Z,16.03
2023-04-29T11:24:35.557Z,16.05
2023-04-29T11:26:38.377Z,16.03
2023-04-29T11:28:43.362Z,16.05
2023-04-29T11:30:48.201Z,16.07
2023-04-29T11:32:52.011Z,16.14
2023-04-29T11:34:55.134Z,16.25
2023-04-29T11:36:57.974Z,16.23
2023-04-29T11:39:01.720Z,16.26
2023-04-29T11:41:04.884Z,16.27
2023-04-29T11:43:07.447Z,16.29
2023-04-29T11:45:10.701Z,16.31
2023-04-29T11:47:14.644Z,16.33
2023-04-29T11:49:17.220Z,16.36
2023-04-29T11:51:20.842Z,16.39
2023-04-29T11:53:27.771Z,16.41
2023-04-29T11:55:30.931Z,16.61
2023-04-29T11:57:33.521Z,16.57
2023-04-29T11:59:36.120Z,16.59
2023-04-29T12:01:38.966Z,16.59
2023-04-29T12:03:45.228Z,16.61
2023-04-29T12:05:49.464Z,16.65
2023-04-29T12:07:52.093Z,16.68
2023-04-29T12:09:56.372Z,16.69
2023-04-29T12:11:59.024Z,16.69
2023-04-29T12:14:06.037Z,16.67
2023-04-29T12:16:09.008Z,16.66
2023-04-29T12:18:11.746Z,16.65
2023-04-29T12:20:16.416Z,16.74
2023-04-29T12:22:20.850Z,16.74
2023-04-29T12:24:23.994Z,16.77
2023-04-29T12:26:29.597Z,16.84
2023-04-29T12:28:32.174Z,16.86
2023-04-29T12:30:36.432Z,16.88
2023-04-29T12:32:39.295Z,16.93
2023-04-29T12:34:41.869Z,17.06
2023-04-29T12:36:46.268Z,17.16
2023-04-29T12:38:49.106Z,17.13
2023-04-29T12:40:51.960Z,17.22
2023-04-29T12:42:54.840Z,17.20
2023-04-29T12:44:58.168Z,17.35
2023-04-29T12:47:09.162Z,17.27
2023-04-29T12:49:12.495Z,17.27
2023-04-29T12:51:15.023Z,17.27
2023-04-29T12:53:18.989Z,17.26
2023-04-29T12:55:21.578Z,17.23
2023-04-29T12:57:25.173Z,17.23
2023-04-29T12:59:27.747Z,17.16
2023-04-29T13:01:30.401Z,17.14
2023-04-29T13:03:34.268Z,17.10
2023-04-29T13:05:37.083Z,17.10
2023-04-29T13:07:39.728Z,17.10
2023-04-29T13:09:43.659Z,17.11
2023-04-29T13:11:46.417Z,17.13
2023-04-29T13:13:48.947Z,17.19
2023-04-29T13:15:51.565Z,17.30
2023-04-29T13:17:55.423Z,17.41
2023-04-29T13:19:58.007Z,17.45
2023-04-29T13:22:00.727Z,17.47
2023-04-29T13:24:03.322Z,17.59
2023-04-29T13:26:08.868Z,17.88
2023-04-29T13:28:11.846Z,18.13
2023-04-29T13:30:14.921Z,18.19
2023-04-29T13:32:18.748Z,18.51
2023-04-29T13:34:21.682Z,18.54
2023-04-29T13:36:24.252Z,18.58
2023-04-29T13:38:26.803Z,18.57
2023-04-29T13:40:29.386Z,18.53
2023-04-29T13:42:39.120Z,18.60
2023-04-29T13:44:53.164Z,18.63
2023-04-29T13:46:56.219Z,18.50
2023-04-29T13:49:17.459Z,18.43
2023-04-29T13:53:56.868Z,18.23
2023-04-29T13:56:41.251Z,18.03
2023-04-29T13:58:52.210Z,18.00
2023-04-29T14:02:43.131Z,17.74
2023-04-29T14:04:45.955Z,17.72
2023-04-29T14:06:48.608Z,17.63
2023-04-29T14:08:51.477Z,17.60
2023-04-29T14:10:54.059Z,17.66
2023-04-29T14:12:56.708Z,17.60
2023-04-29T14:15:00.853Z,17.65
2023-04-29T14:17:03.788Z,17.54
2023-04-29T14:19:07.091Z,17.54
2023-04-29T14:21:11.010Z,17.41
2023-04-29T14:23:13.589Z,17.42
2023-04-29T14:25:16.340Z,17.31
2023-04-29T14:27:18.890Z,17.33
2023-04-29T14:29:21.608Z,17.19
2023-04-29T14:31:25.694Z,17.17
2023-04-29T14:33:28.289Z,17.08
2023-04-29T14:35:31.538Z,17.05
2023-04-29T14:37:34.167Z,17.00
2023-04-29T14:39:36.968Z,16.95
2023-04-29T14:41:39.555Z,16.95
2023-04-29T14:43:42.518Z,16.90
2023-04-29T14:45:45.280Z,16.83
2023-04-29T14:47:49.173Z,16.76
2023-04-29T14:49:51.742Z,16.71
2023-04-29T14:51:54.475Z,16.68
2023-04-29T14:53:57.022Z,16.63
2023-04-29T14:55:59.622Z,16.64
2023-04-29T14:58:04.946Z,16.57
2023-04-29T15:00:09.951Z,16.54
2023-04-29T15:02:12.927Z,16.52
2023-04-29T15:04:17.019Z,16.47
2023-04-29T15:06:19.685Z,16.45
2023-04-29T15:08:22.641Z,16.40
2023-04-29T15:10:25.382Z,16.39
2023-04-29T15:12:27.964Z,16.46
2023-04-29T15:14:30.577Z,16.40
2023-04-29T15:16:33.259Z,16.32
2023-04-29T15:18:36.531Z,16.29
2023-04-29T15:20:40.463Z,16.25
2023-04-29T15:22:43.070Z,16.22
2023-04-29T15:24:45.997Z,16.18
2023-04-29T15:26:48.702Z,16.13
2023-04-29T15:28:51.270Z,16.10
2023-04-29T15:30:54.018Z,16.08
2023-04-29T15:32:56.759Z,16.05
2023-04-29T15:34:59.649Z,16.02
2023-04-29T15:37:03.613Z,16.02
2023-04-29T15:39:06.167Z,16.00
2023-04-29T15:41:08.739Z,15.98
2023-04-29T15:43:11.304Z,15.95
2023-04-29T15:45:13.965Z,15.93
2023-04-29T15:47:16.580Z,15.91
2023-04-29T15:49:19.131Z,15.91
2023-04-29T15:51:21.701Z,15.89
2023-04-29T15:53:25.836Z,15.85
2023-04-29T15:55:28.488Z,15.84
2023-04-29T15:57:31.018Z,15.83
2023-04-29T15:59:33.676Z,15.84
2023-04-29T16:01:36.657Z,15.81
2023-04-29T16:03:39.688Z,15.78
2023-04-29T16:05:42.285Z,15.75
2023-04-29T16:07:44.912Z,15.73
2023-04-29T16:09:48.802Z,15.70
2023-04-29T16:11:53.593Z,15.67
2023-04-29T16:13:56.219Z,15.67
2023-04-29T16:15:58.865Z,15.65
2023-04-29T16:18:01.764Z,15.64
2023-04-29T16:20:05.376Z,15.62
2023-04-29T16:22:07.981Z,15.59
2023-04-29T16:24:10.531Z,15.58
2023-04-29T16:26:14.510Z,15.58
2023-04-29T16:28:17.269Z,15.57
2023-04-29T16:30:19.806Z,15.57
2023-04-29T16:32:22.428Z,15.61
2023-04-29T16:34:25.124Z,15.58
2023-04-29T16:36:27.914Z,15.56
2023-04-29T16:38:30.482Z,15.55
2023-04-29T16:40:33.043Z,15.56
2023-04-29T16:42:36.946Z,15.53
2023-04-29T16:44:39.524Z,15.53
2023-04-29T16:46:43.788Z,15.54
2023-04-29T16:48:46.583Z,15.52
2023-04-29T16:50:50.557Z,15.50
2023-04-29T16:52:53.652Z,15.52
2023-04-29T16:54:57.102Z,15.50
2023-04-29T16:56:59.690Z,15.50
2023-04-29T16:59:03.726Z,15.49
2023-04-29T17:01:07.798Z,15.47
2023-04-29T17:03:10.915Z,15.44
2023-04-29T17:05:13.799Z,15.45
2023-04-29T17:07:19.329Z,15.43
2023-04-29T17:09:25.854Z,15.46
2023-04-29T17:11:28.477Z,15.46
2023-04-29T17:13:31.067Z,15.44
2023-04-29T17:15:34.994Z,15.41
2023-04-29T17:17:37.737Z,15.41
2023-04-29T17:19:40.327Z,15.37
2023-04-29T17:21:42.989Z,15.37
2023-04-29T17:23:45.551Z,15.35
2023-04-29T17:25:48.190Z,15.34
2023-04-29T17:27:50.790Z,15.32
2023-04-29T17:29:53.659Z,15.28
2023-04-29T17:31:59.933Z,15.27
2023-04-29T17:34:18.133Z,15.25
2023-04-29T17:36:20.758Z,15.23
2023-04-29T17:38:23.337Z,15.23
2023-04-29T17:40:26.058Z,15.20
2023-04-29T17:42:28.625Z,15.19
2023-04-29T17:44:31.177Z,15.19
2023-04-29T17:46:33.992Z,15.19
2023-04-29T17:48:37.921Z,15.18
2023-04-29T17:50:40.519Z,15.15
2023-04-29T17:52:43.122Z,15.14
2023-04-29T17:54:45.668Z,15.13
2023-04-29T17:56:48.263Z,15.11
2023-04-29T17:58:50.920Z,15.09
2023-04-29T18:00:53.478Z,15.09
2023-04-29T18:02:56.163Z,15.08
2023-04-29T18:05:00.299Z,15.07
2023-04-29T18:07:02.905Z,15.05
2023-04-29T18:09:05.558Z,15.02
2023-04-29T18:11:09.791Z,15.00
2023-04-29T18:13:12.382Z,15.08
2023-04-29T18:15:16.588Z,15.01
2023-04-29T18:17:19.293Z,14.99
2023-04-29T18:19:21.867Z,14.97
2023-04-29T18:21:27.339Z,14.93
2023-04-29T18:23:29.993Z,14.92
2023-04-29T18:25:32.541Z,14.89
2023-04-29T18:27:35.118Z,14.86
2023-04-29T18:29:37.712Z,14.85
2023-04-29T18:31:40.346Z,14.85
2023-04-29T18:33:43.088Z,14.84
2023-04-29T18:35:45.689Z,14.83
2023-04-29T18:37:49.807Z,14.80
2023-04-29T18:39:54.909Z,14.80
2023-04-29T18:41:58.054Z,14.77
2023-04-29T18:44:00.628Z,14.76
2023-04-29T18:46:03.423Z,14.75
2023-04-29T18:48:06.971Z,14.73
2023-04-29T18:50:09.846Z,14.73
2023-04-29T18:52:12.448Z,14.70
2023-04-29T18:54:17.528Z,14.67
2023-04-29T18:56:20.093Z,14.66
2023-04-29T18:58:22.744Z,14.64
2023-04-29T19:00:25.700Z,14.63
2023-04-29T19:02:28.298Z,14.61
2023-04-29T19:04:30.922Z,14.62
2023-04-29T19:06:33.649Z,14.58
2023-04-29T19:08:36.380Z,14.55
2023-04-29T19:10:40.291Z,14.55
2023-04-29T19:12:42.842Z,14.53
2023-04-29T19:14:45.503Z,14.52
2023-04-29T19:16:48.047Z,14.51
2023-04-29T19:18:50.662Z,14.51
2023-04-29T19:20:53.622Z,14.51
2023-04-29T19:22:56.726Z,14.54
2023-04-29T19:24:59.277Z,14.50
2023-04-29T19:27:03.542Z,14.48
2023-04-29T19:29:08.898Z,14.46
2023-04-29T19:31:12.026Z,14.43
2023-04-29T19:33:14.707Z,14.43
2023-04-29T19:35:17.296Z,14.40
2023-04-29T19:37:19.858Z,14.39
2023-04-29T19:39:22.425Z,14.40
2023-04-29T19:41:25.050Z,14.40
2023-04-29T19:43:28.931Z,14.37
2023-04-29T19:45:31.530Z,14.37
2023-04-29T19:47:34.712Z,14.37
2023-04-29T19:49:37.702Z,14.36
2023-04-29T19:51:40.789Z,14.35
2023-04-29T19:53:43.393Z,14.34
2023-04-29T19:55:51.193Z,14.36
2023-04-29T19:57:54.363Z,14.35
2023-04-29T19:59:58.285Z,14.35
2023-04-29T20:02:00.863Z,14.34
2023-04-29T20:04:03.531Z,14.32
2023-04-29T20:06:06.777Z,14.31
2023-04-29T20:08:09.394Z,14.31
2023-04-29T20:10:12.663Z,14.30
2023-04-29T20:12:15.217Z,14.30
2023-04-29T20:14:17.818Z,14.28
2023-04-29T20:16:23.249Z,14.28
2023-04-29T20:18:26.324Z,14.28
2023-04-29T20:20:28.982Z,14.28
2023-04-29T20:22:31.548Z,14.27
2023-04-29T20:24:34.120Z,14.26
2023-04-29T20:26:36.680Z,14.26
2023-04-29T20:28:39.661Z,14.25
2023-04-29T20:30:42.209Z,14.24
2023-04-29T20:32:46.195Z,14.24
2023-04-29T20:34:49.157Z,14.22
2023-04-29T20:36:51.751Z,14.21
2023-04-29T20:38:54.299Z,14.19
2023-04-29T20:40:57.593Z,14.18
2023-04-29T20:43:00.762Z,14.19
2023-04-29T20:45:03.351Z,14.19
2023-04-29T20:47:05.984Z,14.19
2023-04-29T20:49:09.926Z,14.17
2023-04-29T20:51:13.560Z,14.18
2023-04-29T20:53:16.858Z,14.18
2023-04-29T20:55:19.455Z,14.18
2023-04-29T20:57:22.031Z,14.17
2023-04-29T20:59:24.782Z,14.18
2023-04-29T21:01:27.500Z,14.17
2023-04-29T21:03:30.104Z,14.19
2023-04-29T21:05:34.727Z,14.19
2023-04-29T21:07:37.493Z,14.19
2023-04-29T21:09:40.160Z,14.18
2023-04-29T21:11:42.737Z,14.16
2023-04-29T21:13:49.883Z,14.14
2023-04-29T21:15:52.590Z,14.14
2023-04-29T21:17:55.296Z,14.13
2023-04-29T21:19:57.901Z,14.13
2023-04-29T21:22:01.818Z,14.11
2023-04-29T21:24:04.767Z,14.09
2023-04-29T21:26:07.345Z,14.08
2023-04-29T21:28:09.917Z,14.06
2023-04-29T21:30:13.139Z,14.05
2023-04-29T21:32:21.370Z,14.03
2023-04-29T21:34:24.062Z,14.02
2023-04-29T21:36:26.910Z,14.00
2023-04-29T21:38:30.836Z,14.01
2023-04-29T21:40:33.411Z,14.00
2023-04-29T21:42:36.654Z,13.99
2023-04-29T21:44:39.687Z,13.98
2023-04-29T21:46:42.480Z,13.97
2023-04-29T21:48:45.527Z,13.97
2023-04-29T21:50:49.862Z,13.97
2023-04-29T21:52:52.429Z,13.96
2023-04-29T21:54:56.445Z,13.95
2023-04-29T21:56:58.994Z,13.92
2023-04-29T21:59:01.634Z,13.90
2023-04-29T22:01:15.685Z,13.87
2023-04-29T22:03:18.427Z,13.88
2023-04-29T22:05:21.228Z,13.86
2023-04-29T22:07:26.119Z,13.82
2023-04-29T22:09:31.554Z,13.82
2023-04-29T22:11:35.691Z,13.83
2023-04-29T22:13:38.258Z,13.83
2023-04-29T22:15:40.857Z,13.84
2023-04-29T22:17:43.474Z,13.84
2023-04-29T22:19:46.090Z,13.82
2023-04-29T22:21:48.646Z,13.82
2023-04-29T22:23:51.318Z,13.83
2023-04-29T22:25:53.882Z,13.82
2023-04-29T22:27:57.797Z,13.82
2023-04-29T22:30:00.529Z,13.83
2023-04-29T22:32:03.151Z,13.80
2023-04-29T22:34:05.724Z,13.81
2023-04-29T22:36:08.385Z,13.78
2023-04-29T22:38:11.110Z,13.79
2023-04-29T22:40:14.736Z,13.78
2023-04-29T22:42:18.167Z,13.76
2023-04-29T22:44:22.062Z,13.73
2023-04-29T22:46:24.754Z,13.72
2023-04-29T22:48:28.053Z,13.68
2023-04-29T22:50:30.673Z,13.69
2023-04-29T22:52:33.652Z,13.67
2023-04-29T22:54:36.305Z,13.67
2023-04-29T22:56:38.903Z,13.66
2023-04-29T22:58:41.526Z,13.66
2023-04-29T23:00:46.406Z,13.67
2023-04-29T23:02:49.021Z,13.67
2023-04-29T23:04:51.859Z,13.67
2023-04-29T23:06:54.507Z,13.66
2023-04-29T23:08:57.096Z,13.64
2023-04-29T23:10:59.719Z,13.64
2023-04-29T23:13:02.859Z,13.63
2023-04-29T23:15:06.762Z,13.62
2023-04-29T23:17:10.753Z,13.61
2023-04-29T23:19:13.334Z,13.59
2023-04-29T23:21:15.888Z,13.58
2023-04-29T23:23:18.690Z,13.57
2023-04-29T23:25:21.392Z,13.57
2023-04-29T23:27:24.037Z,13.54
2023-04-29T23:29:26.572Z,13.51
2023-04-29T23:31:29.219Z,13.51
2023-04-29T23:33:33.211Z,13.51
2023-04-29T23:35:35.857Z,13.50
2023-04-29T23:37:38.563Z,13.49
2023-04-29T23:39:41.150Z,13.47
2023-04-29T23:41:43.706Z,13.46
2023-04-29T23:43:46.318Z,13.45
2023-04-29T23:45:48.885Z,13.45
2023-04-29T23:47:51.461Z,13.43
2023-04-29T23:49:55.756Z,13.41
2023-04-29T23:51:58.735Z,13.40
2023-04-29T23:54:01.280Z,13.38
2023-04-29T23:56:03.844Z,13.37
2023-04-29T23:58:06.391Z,13.34
